createdAt,value
2022-11-21T00:01:28.388Z,9.83
2022-11-21T00:03:55.561Z,9.82
2022-11-21T00:06:23.754Z,10.13
2022-11-21T00:11:43.079Z,10.29
2022-11-21T00:14:10.365Z,10.15
2022-11-21T00:16:37.580Z,10.28
2022-11-21T00:19:05.821Z,10.03
2022-11-21T00:21:33.427Z,9.56
2022-11-21T00:24:00.616Z,9.35
2022-11-21T00:26:27.849Z,9.05
2022-11-21T00:29:20.956Z,9.14
2022-11-21T00:31:48.417Z,9.39
2022-11-21T00:34:16.539Z,9.39
2022-11-21T00:36:43.749Z,9.55
2022-11-21T00:39:11.087Z,9.77
2022-11-21T00:41:38.325Z,9.70
2022-11-21T00:44:05.650Z,9.90
2022-11-21T00:46:32.793Z,9.82
2022-11-21T00:49:00.117Z,9.41
2022-11-21T00:51:27.465Z,9.49
2022-11-21T00:53:54.616Z,9.66
2022-11-21T00:56:21.982Z,9.45
2022-11-21T00:58:49.149Z,9.69
2022-11-21T01:01:17.050Z,9.52
2022-11-21T01:03:46.140Z,9.68
2022-11-21T01:06:16.067Z,9.37
2022-11-21T01:08:45.589Z,9.44
2022-11-21T01:11:20.410Z,9.64
2022-11-21T01:13:49.078Z,9.61
2022-11-21T01:16:22.546Z,9.65
2022-11-21T01:18:50.179Z,9.48
2022-11-21T01:21:42.624Z,9.43
2022-11-21T01:24:12.563Z,9.46
2022-11-21T01:26:40.226Z,9.77
2022-11-21T01:29:09.050Z,9.90
2022-11-21T01:31:36.677Z,9.83
2022-11-21T01:34:03.899Z,9.73
2022-11-21T01:36:34.134Z,9.85
2022-11-21T01:39:06.333Z,9.79
2022-11-21T01:41:44.354Z,9.80
2022-11-21T01:44:46.925Z,10.17
2022-11-21T01:47:14.043Z,9.86
2022-11-21T01:49:42.231Z,9.22
2022-11-21T01:52:24.741Z,9.11
2022-11-21T01:54:58.190Z,8.96
2022-11-21T01:57:44.837Z,8.57
2022-11-21T02:00:27.674Z,8.87
2022-11-21T02:03:03.535Z,8.69
2022-11-21T02:05:35.695Z,8.97
2022-11-21T02:08:12.497Z,8.68
2022-11-21T02:10:48.717Z,8.71
2022-11-21T02:13:16.745Z,8.87
2022-11-21T02:15:44.186Z,8.59
2022-11-21T02:18:11.303Z,8.58
2022-11-21T02:20:45.920Z,8.72
2022-11-21T02:23:31.917Z,8.94
2022-11-21T02:25:59.727Z,9.02
2022-11-21T02:28:27.385Z,9.17
2022-11-21T02:30:54.530Z,8.51
2022-11-21T02:33:21.948Z,8.75
2022-11-21T02:36:01.867Z,8.94
2022-11-21T02:38:38.865Z,8.79
2022-11-21T02:41:26.819Z,8.94
2022-11-21T02:44:18.683Z,8.74
2022-11-21T02:46:53.260Z,8.71
2022-11-21T02:49:55.530Z,8.62
2022-11-21T02:52:22.956Z,8.83
2022-11-21T02:54:50.109Z,8.58
2022-11-21T02:57:17.216Z,8.65
2022-11-21T02:59:44.432Z,8.73
2022-11-21T03:02:11.731Z,8.97
2022-11-21T03:04:38.926Z,8.73
2022-11-21T03:07:06.139Z,9.14
2022-11-21T03:09:33.423Z,8.76
2022-11-21T03:12:05.769Z,8.94
2022-11-21T03:14:34.617Z,8.83
2022-11-21T03:17:02.774Z,9.21
2022-11-21T03:19:30.871Z,8.89
2022-11-21T03:21:58.006Z,8.28
2022-11-21T03:24:25.381Z,8.55
2022-11-21T03:26:52.802Z,8.32
2022-11-21T03:29:19.947Z,8.25
2022-11-21T03:31:47.165Z,8.04
2022-11-21T03:34:14.362Z,7.67
2022-11-21T03:36:41.598Z,7.99
2022-11-21T03:39:09.480Z,7.93
2022-11-21T03:41:36.728Z,8.54
2022-11-21T03:44:09.781Z,8.49
2022-11-21T03:46:42.483Z,8.84
2022-11-21T03:49:23.630Z,8.87
2022-11-21T03:51:50.772Z,8.97
2022-11-21T03:54:17.939Z,8.89
2022-11-21T03:56:45.072Z,8.72
2022-11-21T03:59:12.244Z,8.79
2022-11-21T04:01:39.397Z,8.84
2022-11-21T04:04:06.700Z,8.71
2022-11-21T04:06:34.123Z,8.67
2022-11-21T04:09:01.360Z,9.02
2022-11-21T04:11:28.841Z,9.02
2022-11-21T04:13:56.527Z,9.06
2022-11-21T04:16:23.700Z,8.95
2022-11-21T04:18:58.085Z,9.13
2022-11-21T04:21:25.624Z,8.83
2022-11-21T04:23:53.452Z,9.17
2022-11-21T04:26:21.141Z,8.88
2022-11-21T04:28:48.731Z,9.14
2022-11-21T04:31:16.457Z,9.28
2022-11-21T04:33:43.639Z,9.32
2022-11-21T04:36:10.934Z,9.54
2022-11-21T04:38:38.147Z,9.36
2022-11-21T04:41:11.990Z,9.20
2022-11-21T04:43:39.445Z,9.28
2022-11-21T04:46:06.576Z,9.04
2022-11-21T04:48:33.742Z,9.16
2022-11-21T04:51:00.960Z,9.13
2022-11-21T04:53:41.541Z,9.23
2022-11-21T04:56:22.590Z,8.95
2022-11-21T04:59:10.034Z,9.12
2022-11-21T05:01:50.087Z,9.43
2022-11-21T05:04:37.696Z,9.03
2022-11-21T05:07:06.092Z,8.92
2022-11-21T05:09:38.302Z,9.05
2022-11-21T05:12:32.382Z,8.52
2022-11-21T05:15:05.479Z,8.55
2022-11-21T05:17:39.255Z,8.57
2022-11-21T05:20:20.918Z,8.96
2022-11-21T05:22:57.803Z,8.33
2022-11-21T05:25:56.402Z,7.94
2022-11-21T05:28:53.759Z,8.15
2022-11-21T05:31:47.935Z,7.86
2022-11-21T05:34:26.139Z,7.80
2022-11-21T05:37:05.700Z,8.09
2022-11-21T05:39:35.846Z,7.90
2022-11-21T05:42:13.173Z,7.95
2022-11-21T05:44:40.392Z,7.73
2022-11-21T05:47:16.585Z,7.74
2022-11-21T05:49:46.085Z,7.88
2022-11-21T05:52:25.105Z,8.17
2022-11-21T05:55:03.376Z,8.15
2022-11-21T05:57:42.149Z,8.25
2022-11-21T06:00:33.195Z,8.35
2022-11-21T06:03:19.623Z,8.30
2022-11-21T06:05:47.171Z,8.34
2022-11-21T06:08:14.613Z,8.85
2022-11-21T06:10:42.510Z,8.50
2022-11-21T06:13:22.410Z,8.01
2022-11-21T06:16:15.209Z,8.56
2022-11-21T06:18:46.774Z,8.67
2022-11-21T06:21:25.067Z,8.85
2022-11-21T06:23:56.299Z,8.93
2022-11-21T06:26:26.727Z,9.08
2022-11-21T06:29:02.273Z,9.14
2022-11-21T06:31:31.030Z,9.48
2022-11-21T06:33:59.820Z,9.51
2022-11-21T06:36:27.845Z,9.33
2022-11-21T06:38:56.623Z,9.35
2022-11-21T06:41:30.288Z,9.52
2022-11-21T06:44:01.573Z,9.22
2022-11-21T06:46:29.332Z,9.35
2022-11-21T06:48:56.695Z,9.29
2022-11-21T06:51:25.991Z,8.94
2022-11-21T06:53:57.583Z,8.78
2022-11-21T06:56:29.215Z,8.86
2022-11-21T06:58:58.361Z,8.61
2022-11-21T07:01:26.102Z,8.74
2022-11-21T07:03:54.388Z,8.68
2022-11-21T07:06:27.762Z,8.70
2022-11-21T07:09:30.989Z,8.73
2022-11-21T07:11:48.553Z,8.72
2022-11-21T07:14:17.871Z,8.68
2022-11-21T07:16:45.151Z,8.54
2022-11-21T07:19:13.234Z,8.89
2022-11-21T07:21:40.823Z,9.21
2022-11-21T07:24:08.323Z,9.07
2022-11-21T07:26:36.434Z,8.79
2022-11-21T07:29:07.310Z,8.71
2022-11-21T07:31:42.660Z,8.74
2022-11-21T07:34:10.460Z,8.56
2022-11-21T07:36:38.189Z,8.61
2022-11-21T07:39:06.624Z,9.11
2022-11-21T07:41:33.986Z,9.12
2022-11-21T07:44:01.383Z,9.24
2022-11-21T07:46:28.813Z,9.69
2022-11-21T07:49:00.591Z,9.87
2022-11-21T07:51:30.216Z,9.96
2022-11-21T07:53:57.594Z,9.78
2022-11-21T07:56:26.674Z,9.80
2022-11-21T07:58:54.246Z,9.34
2022-11-21T08:01:23.892Z,9.55
2022-11-21T08:03:51.644Z,9.46
2022-11-21T08:06:19.367Z,9.19
2022-11-21T08:08:48.145Z,9.17
2022-11-21T08:11:18.383Z,9.25
2022-11-21T08:13:59.389Z,8.98
2022-11-21T08:16:35.735Z,9.40
2022-11-21T08:19:03.849Z,8.96
2022-11-21T08:21:31.626Z,9.20
2022-11-21T08:23:58.916Z,9.40
2022-11-21T08:26:26.484Z,9.89
2022-11-21T08:28:58.593Z,9.73
2022-11-21T08:31:30.449Z,10.06
2022-11-21T08:33:58.172Z,10.08
2022-11-21T08:36:25.750Z,9.84
2022-11-21T08:38:53.063Z,9.78
2022-11-21T08:41:39.236Z,9.66
2022-11-21T08:44:11.163Z,10.07
2022-11-21T08:46:44.249Z,9.99
2022-11-21T08:49:11.488Z,10.16
2022-11-21T08:51:38.823Z,10.54
2022-11-21T08:54:08.224Z,10.74
2022-11-21T08:56:37.000Z,11.63
2022-11-21T08:59:04.892Z,14.82
2022-11-21T09:01:32.307Z,18.45
2022-11-21T09:04:27.306Z,21.92
2022-11-21T09:06:54.814Z,23.90
2022-11-21T09:09:25.390Z,25.38
2022-11-21T09:11:53.485Z,26.25
2022-11-21T09:14:39.886Z,26.83
2022-11-21T09:17:27.493Z,26.85
2022-11-21T09:19:55.366Z,26.66
2022-11-21T09:22:26.251Z,27.30
2022-11-21T09:24:54.009Z,27.38
2022-11-21T09:27:23.113Z,26.15
2022-11-21T09:29:56.147Z,26.74
2022-11-21T09:32:24.662Z,26.80
2022-11-21T09:34:52.099Z,27.61
2022-11-21T09:37:21.621Z,28.49
2022-11-21T09:39:49.064Z,28.68
2022-11-21T09:42:28.673Z,28.43
2022-11-21T09:45:33.131Z,26.22
2022-11-21T09:48:12.974Z,26.73
2022-11-21T09:50:54.323Z,26.81
2022-11-21T09:53:31.437Z,25.81
2022-11-21T09:56:07.894Z,23.34
2022-11-21T09:59:07.237Z,21.33
2022-11-21T10:01:36.510Z,20.13
2022-11-21T10:04:13.297Z,21.75
2022-11-21T10:07:20.016Z,25.23
2022-11-21T10:10:29.073Z,24.87
2022-11-21T10:13:48.886Z,23.01
2022-11-21T10:17:15.810Z,23.86
2022-11-21T10:20:08.556Z,25.79
2022-11-21T10:23:25.047Z,26.26
2022-11-21T10:26:19.862Z,29.10
2022-11-21T10:29:02.505Z,29.37
2022-11-21T10:31:38.919Z,30.76
2022-11-21T10:34:24.072Z,31.38
2022-11-21T10:37:06.487Z,29.87
2022-11-21T10:39:51.071Z,29.82
2022-11-21T10:42:51.979Z,28.71
2022-11-21T10:45:20.160Z,27.67
2022-11-21T10:47:53.617Z,25.98
2022-11-21T10:51:18.498Z,23.80
2022-11-21T10:54:07.870Z,22.79
2022-11-21T10:56:37.316Z,21.54
2022-11-21T10:59:31.426Z,20.75
2022-11-21T11:02:24.647Z,20.64
2022-11-21T11:05:24.885Z,21.37
2022-11-21T11:08:13.506Z,22.17
2022-11-21T11:11:05.237Z,23.07
2022-11-21T11:13:50.491Z,24.03
2022-11-21T11:16:22.183Z,26.05
2022-11-21T11:19:14.700Z,25.78
2022-11-21T11:21:45.270Z,23.87
2022-11-21T11:24:12.434Z,23.27
2022-11-21T11:26:49.135Z,24.16
2022-11-21T11:29:35.114Z,22.72
2022-11-21T11:32:21.972Z,21.14
2022-11-21T11:35:07.377Z,19.72
2022-11-21T11:37:43.859Z,19.90
2022-11-21T11:40:38.450Z,19.40
2022-11-21T11:43:55.541Z,18.56
2022-11-21T11:47:05.493Z,19.65
2022-11-21T11:50:13.146Z,21.00
2022-11-21T11:53:17.230Z,20.99
2022-11-21T11:56:17.729Z,20.88
2022-11-21T11:59:24.216Z,20.36
2022-11-21T12:02:11.604Z,19.86
2022-11-21T12:04:55.687Z,19.02
2022-11-21T12:08:33.249Z,19.52
2022-11-21T12:10:33.753Z,19.82
2022-11-21T12:13:14.285Z,18.87
2022-11-21T12:15:51.002Z,17.95
2022-11-21T12:18:24.673Z,18.27
2022-11-21T12:21:18.595Z,18.82
2022-11-21T12:23:54.282Z,18.70
2022-11-21T12:27:29.245Z,19.07
2022-11-21T12:30:30.902Z,18.82
2022-11-21T12:33:33.796Z,17.93
2022-11-21T12:36:31.748Z,17.08
2022-11-21T12:39:46.146Z,16.66
2022-11-21T12:42:50.798Z,16.57
2022-11-21T12:45:37.988Z,16.27
2022-11-21T12:48:32.947Z,15.92
2022-11-21T12:52:16.442Z,16.14
2022-11-21T12:55:36.343Z,16.36
2022-11-21T12:58:35.127Z,16.43
2022-11-21T13:01:43.264Z,17.47
2022-11-21T13:04:30.970Z,17.84
2022-11-21T13:06:59.683Z,17.80
2022-11-21T13:09:29.332Z,17.80
2022-11-21T13:12:48.065Z,17.49
2022-11-21T13:16:00.558Z,18.62
2022-11-21T13:18:43.025Z,19.12
2022-11-21T13:21:47.790Z,18.10
2022-11-21T13:24:47.466Z,17.57
2022-11-21T13:27:39.068Z,17.36
2022-11-21T13:30:10.373Z,17.02
2022-11-21T13:32:55.598Z,16.80
2022-11-21T13:35:22.665Z,16.62
2022-11-21T13:37:49.860Z,16.77
2022-11-21T13:40:32.017Z,16.32
2022-11-21T13:43:31.478Z,16.80
2022-11-21T13:45:57.652Z,17.56
2022-11-21T13:48:31.240Z,17.28
2022-11-21T13:51:53.819Z,17.19
2022-11-21T13:54:59.784Z,16.73
2022-11-21T13:58:15.565Z,16.34
2022-11-21T14:01:46.330Z,15.72
2022-11-21T14:04:38.168Z,15.42
2022-11-21T14:07:30.976Z,15.33
2022-11-21T14:10:03.677Z,15.78
2022-11-21T14:12:44.679Z,15.53
2022-11-21T14:15:31.451Z,15.64
2022-11-21T14:18:02.252Z,15.67
2022-11-21T14:20:47.343Z,15.35
2022-11-21T14:23:21.376Z,15.39
2022-11-21T14:26:01.552Z,15.27
2022-11-21T14:28:34.109Z,15.24
2022-11-21T14:31:07.605Z,15.22
2022-11-21T14:33:39.012Z,14.96
2022-11-21T14:36:21.302Z,14.64
2022-11-21T14:39:36.138Z,14.58
2022-11-21T14:41:54.771Z,14.33
2022-11-21T14:44:24.309Z,14.31
2022-11-21T14:47:26.153Z,14.15
2022-11-21T14:50:00.860Z,13.94
2022-11-21T14:52:33.071Z,14.18
2022-11-21T14:57:56.851Z,13.81
2022-11-21T15:03:23.357Z,13.56
2022-11-21T15:06:06.216Z,13.35
2022-11-21T15:09:39.463Z,13.18
2022-11-21T15:11:47.813Z,13.36
2022-11-21T15:14:36.438Z,13.14
2022-11-21T15:17:12.363Z,12.85
2022-11-21T15:19:43.488Z,12.50
2022-11-21T15:22:37.886Z,12.19
2022-11-21T15:25:16.958Z,12.07
2022-11-21T15:27:51.354Z,12.10
2022-11-21T15:30:18.846Z,12.30
2022-11-21T15:33:15.550Z,12.03
2022-11-21T15:35:58.009Z,11.58
2022-11-21T15:38:28.240Z,11.85
2022-11-21T15:41:10.268Z,12.01
2022-11-21T15:43:42.191Z,11.63
2022-11-21T15:46:19.289Z,11.34
2022-11-21T15:48:53.506Z,11.45
2022-11-21T15:54:22.407Z,11.19
2022-11-21T15:56:50.051Z,11.05
2022-11-21T15:57:13.576Z,11.57
2022-11-21T15:59:19.634Z,10.79
2022-11-21T16:01:47.043Z,10.56
2022-11-21T16:04:20.983Z,10.50
2022-11-21T16:06:52.090Z,10.42
2022-11-21T16:09:21.875Z,10.18
2022-11-21T16:11:49.416Z,10.07
2022-11-21T16:14:18.488Z,10.13
2022-11-21T16:16:47.461Z,10.19
2022-11-21T16:19:16.267Z,10.40
2022-11-21T16:27:02.380Z,9.91
2022-11-21T16:29:29.983Z,9.58
2022-11-21T16:31:57.554Z,9.57
2022-11-21T16:34:30.099Z,9.80
2022-11-21T16:36:57.389Z,9.76
2022-11-21T16:39:24.656Z,9.14
2022-11-21T16:41:51.887Z,9.06
2022-11-21T16:44:19.292Z,9.11
2022-11-21T16:46:49.039Z,9.08
2022-11-21T16:49:16.604Z,9.11
2022-11-21T16:51:43.932Z,9.33
2022-11-21T16:54:11.316Z,9.51
2022-11-21T16:56:38.910Z,9.33
2022-11-21T16:59:06.577Z,9.30
2022-11-21T17:01:34.390Z,9.02
2022-11-21T17:04:01.959Z,8.85
2022-11-21T17:06:31.189Z,9.00
2022-11-21T17:09:02.103Z,8.56
2022-11-21T17:11:31.864Z,8.34
2022-11-21T17:14:06.545Z,9.21
2022-11-21T17:16:35.772Z,8.81
2022-11-21T17:19:04.914Z,8.74
2022-11-21T17:21:34.036Z,8.70
2022-11-21T17:24:03.856Z,8.71
2022-11-21T17:26:48.617Z,8.59
2022-11-21T17:29:17.210Z,8.58
2022-11-21T17:31:44.547Z,8.66
2022-11-21T17:34:11.790Z,8.34
2022-11-21T17:36:39.084Z,8.21
2022-11-21T17:39:06.318Z,8.34
2022-11-21T17:41:33.600Z,8.38
2022-11-21T17:44:01.582Z,8.65
2022-11-21T17:46:28.874Z,8.41
2022-11-21T17:48:58.965Z,8.46
2022-11-21T17:51:33.504Z,8.26
2022-11-21T17:54:02.188Z,8.56
2022-11-21T17:56:33.868Z,8.58
2022-11-21T17:59:21.800Z,8.47
2022-11-21T18:03:00.881Z,8.76
2022-11-21T18:05:51.490Z,8.66
2022-11-21T18:08:19.361Z,8.43
2022-11-21T18:10:59.029Z,8.57
2022-11-21T18:13:42.558Z,8.59
2022-11-21T18:17:08.721Z,8.47
2022-11-21T18:20:09.431Z,8.85
2022-11-21T18:22:52.116Z,9.04
2022-11-21T18:25:25.946Z,9.06
2022-11-21T18:28:08.548Z,8.88
2022-11-21T18:34:11.248Z,8.88
2022-11-21T18:36:38.771Z,8.77
2022-11-21T18:39:14.157Z,8.65
2022-11-21T18:41:44.355Z,8.84
2022-11-21T18:44:26.816Z,9.03
2022-11-21T18:47:19.281Z,9.00
2022-11-21T18:50:14.575Z,8.79
2022-11-21T18:52:46.978Z,8.74
2022-11-21T18:55:16.367Z,8.97
2022-11-21T18:57:46.987Z,9.17
2022-11-21T19:00:20.636Z,9.00
2022-11-21T19:03:01.942Z,8.56
2022-11-21T19:05:38.062Z,8.88
2022-11-21T19:08:22.979Z,8.92
2022-11-21T19:11:33.788Z,9.19
2022-11-21T19:14:07.024Z,9.35
2022-11-21T19:16:58.775Z,9.29
2022-11-21T19:19:42.017Z,8.88
2022-11-21T19:22:15.251Z,8.70
2022-11-21T19:25:02.581Z,8.55
2022-11-21T19:27:35.593Z,8.65
2022-11-21T19:30:13.309Z,8.64
2022-11-21T19:32:59.385Z,8.58
2022-11-21T19:35:26.751Z,8.80
2022-11-21T19:37:56.566Z,8.77
2022-11-21T19:40:49.351Z,8.63
2022-11-21T19:43:16.614Z,8.52
2022-11-21T19:46:05.369Z,8.59
2022-11-21T19:48:44.368Z,8.59
2022-11-21T19:51:15.019Z,8.80
2022-11-21T19:53:52.181Z,8.66
2022-11-21T19:56:25.602Z,8.73
2022-11-21T19:59:08.762Z,8.77
2022-11-21T20:01:52.630Z,8.86
2022-11-21T20:04:39.643Z,9.02
2022-11-21T20:07:24.209Z,9.26
2022-11-21T20:10:06.228Z,9.40
2022-11-21T20:12:44.962Z,9.50
2022-11-21T20:15:26.164Z,9.24
2022-11-21T20:17:53.957Z,9.30
2022-11-21T20:20:34.159Z,9.40
2022-11-21T20:23:10.293Z,9.38
2022-11-21T20:25:37.639Z,9.08
2022-11-21T20:28:10.251Z,9.31
2022-11-21T20:30:38.870Z,9.48
2022-11-21T20:33:11.104Z,9.27
2022-11-21T20:35:39.799Z,9.13
2022-11-21T20:38:07.053Z,8.96
2022-11-21T20:40:34.437Z,9.24
2022-11-21T20:43:06.614Z,9.46
2022-11-21T20:46:07.977Z,9.43
2022-11-21T20:48:21.608Z,9.56
2022-11-21T20:53:52.480Z,9.68
2022-11-21T20:56:21.487Z,9.54
2022-11-21T20:58:48.885Z,9.52
2022-11-21T21:01:20.790Z,9.36
2022-11-21T21:03:48.530Z,9.73
2022-11-21T21:06:18.668Z,9.89
2022-11-21T21:08:52.464Z,10.01
2022-11-21T21:11:50.494Z,10.07
2022-11-21T21:14:13.282Z,9.91
2022-11-21T21:16:41.585Z,9.93
2022-11-21T21:19:08.729Z,10.29
2022-11-21T21:21:41.357Z,9.65
2022-11-21T21:24:11.503Z,9.74
2022-11-21T21:26:44.308Z,9.61
2022-11-21T21:29:16.828Z,9.41
2022-11-21T21:31:50.514Z,9.58
2022-11-21T21:34:21.252Z,9.98
2022-11-21T21:36:52.391Z,10.03
2022-11-21T21:39:19.715Z,9.91
2022-11-21T21:41:49.985Z,9.86
2022-11-21T21:44:17.259Z,9.91
2022-11-21T21:46:44.972Z,10.15
2022-11-21T21:49:13.114Z,10.12
2022-11-21T21:51:40.590Z,9.72
2022-11-21T21:54:17.054Z,9.93
2022-11-21T21:56:46.722Z,10.06
2022-11-21T21:59:15.095Z,10.38
2022-11-21T22:01:42.984Z,10.19
2022-11-21T22:04:12.631Z,10.32
2022-11-21T22:06:40.506Z,10.30
2022-11-21T22:09:08.280Z,10.24
2022-11-21T22:11:38.583Z,10.04
2022-11-21T22:14:15.852Z,10.17
2022-11-21T22:16:46.457Z,10.05
2022-11-21T22:19:14.023Z,10.11
2022-11-21T22:21:41.297Z,9.95
2022-11-21T22:24:31.558Z,10.19
2022-11-21T22:26:59.124Z,10.28
2022-11-21T22:29:26.571Z,10.29
2022-11-21T22:31:53.961Z,10.38
2022-11-21T22:34:22.072Z,10.50
2022-11-21T22:36:49.699Z,10.45
2022-11-21T22:39:18.181Z,10.34
2022-11-21T22:41:45.770Z,10.15
2022-11-21T22:44:13.312Z,10.33
2022-11-21T22:46:40.625Z,10.20
2022-11-21T22:49:08.383Z,10.37
2022-11-21T22:51:35.527Z,10.35
2022-11-21T22:54:02.970Z,10.30
2022-11-21T22:56:30.492Z,10.05
2022-11-21T22:58:57.759Z,9.96
2022-11-21T23:01:26.747Z,9.90
2022-11-21T23:03:55.970Z,9.85
2022-11-21T23:06:26.653Z,9.55
2022-11-21T23:09:18.759Z,9.61
2022-11-21T23:11:45.967Z,9.57
2022-11-21T23:14:13.552Z,9.62
2022-11-21T23:16:41.033Z,9.74
2022-11-21T23:19:08.405Z,9.70
2022-11-21T23:21:35.645Z,9.61
2022-11-21T23:24:04.160Z,10.01
2022-11-21T23:26:31.440Z,9.75
2022-11-21T23:29:01.311Z,9.64
2022-11-21T23:31:33.493Z,9.70
2022-11-21T23:34:00.638Z,9.45
2022-11-21T23:36:27.825Z,9.35
2022-11-21T23:38:55.023Z,9.32
2022-11-21T23:41:22.298Z,9.39
2022-11-21T23:43:52.159Z,9.51
2022-11-21T23:46:19.321Z,9.54
2022-11-21T23:48:49.444Z,9.53
2022-11-21T23:51:16.696Z,9.45
2022-11-21T23:53:43.874Z,9.52
2022-11-21T23:56:11.129Z,9.43
2022-11-21T23:58:38.338Z,9.51
